sensor_id;sensor_type;location;lat;lon;timestamp;P1;durP1;ratioP1;P2;durP2;ratioP2
22826;SDS011;11580;52.562;13.418;2023-07-31T00:00:28;2.27;;;2.07;;
22826;SDS011;11580;52.562;13.418;2023-07-31T00:02:56;3.20;;;2.43;;
22826;SDS011;11580;52.562;13.418;2023-07-31T00:05:23;3.93;;;2.40;;
22826;SDS011;11580;52.562;13.418;2023-07-31T00:07:51;2.03;;;1.90;;
22826;SDS011;11580;52.562;13.418;2023-07-31T00:10:19;2.50;;;2.30;;
22826;SDS011;11580;52.562;13.418;2023-07-31T00:12:47;2.17;;;1.97;;
22826;SDS011;11580;52.562;13.418;2023-07-31T00:15:14;3.20;;;2.60;;
22826;SDS011;11580;52.562;13.418;2023-07-31T00:17:41;2.43;;;1.63;;
22826;SDS011;11580;52.562;13.418;2023-07-31T00:20:10;2.80;;;2.10;;
22826;SDS011;11580;52.562;13.418;2023-07-31T00:22:37;2.73;;;2.30;;
22826;SDS011;11580;52.562;13.418;2023-07-31T00:25:05;1.83;;;1.63;;
22826;SDS011;11580;52.562;13.418;2023-07-31T00:27:33;2.17;;;1.97;;
22826;SDS011;11580;52.562;13.418;2023-07-31T00:30:00;2.77;;;2.43;;
22826;SDS011;11580;52.562;13.418;2023-07-31T00:32:27;2.27;;;2.07;;
22826;SDS011;11580;52.562;13.418;2023-07-31T00:34:54;3.10;;;2.10;;
22826;SDS011;11580;52.562;13.418;2023-07-31T00:37:23;2.30;;;2.10;;
22826;SDS011;11580;52.562;13.418;2023-07-31T00:39:50;2.63;;;2.00;;
22826;SDS011;11580;52.562;13.418;2023-07-31T00:42:17;2.80;;;1.80;;
22826;SDS011;11580;52.562;13.418;2023-07-31T00:44:45;3.10;;;1.93;;
22826;SDS011;11580;52.562;13.418;2023-07-31T00:47:12;2.17;;;1.97;;
22826;SDS011;11580;52.562;13.418;2023-07-31T00:49:39;1.90;;;1.80;;
22826;SDS011;11580;52.562;13.418;2023-07-31T00:52:07;1.73;;;1.63;;
22826;SDS011;11580;52.562;13.418;2023-07-31T00:54:37;2.93;;;1.87;;
22826;SDS011;11580;52.562;13.418;2023-07-31T00:57:05;1.83;;;1.73;;
22826;SDS011;11580;52.562;13.418;2023-07-31T00:59:33;4.70;;;2.30;;
22826;SDS011;11580;52.562;13.418;2023-07-31T01:02:01;3.07;;;2.13;;
22826;SDS011;11580;52.562;13.418;2023-07-31T01:04:30;2.13;;;1.93;;
22826;SDS011;11580;52.562;13.418;2023-07-31T01:07:00;1.90;;;1.80;;
22826;SDS011;11580;52.562;13.418;2023-07-31T01:09:40;2.83;;;2.03;;
22826;SDS011;11580;52.562;13.418;2023-07-31T01:12:14;2.50;;;2.30;;
22826;SDS011;11580;52.562;13.418;2023-07-31T01:14:50;3.07;;;1.70;;
22826;SDS011;11580;52.562;13.418;2023-07-31T01:17:18;2.37;;;2.17;;
22826;SDS011;11580;52.562;13.418;2023-07-31T01:19:45;2.30;;;2.10;;
22826;SDS011;11580;52.562;13.418;2023-07-31T01:22:19;2.20;;;2.00;;
22826;SDS011;11580;52.562;13.418;2023-07-31T01:25:09;4.67;;;2.27;;
22826;SDS011;11580;52.562;13.418;2023-07-31T01:27:56;2.20;;;2.00;;
22826;SDS011;11580;52.562;13.418;2023-07-31T01:30:32;2.20;;;2.00;;
22826;SDS011;11580;52.562;13.418;2023-07-31T01:33:03;2.33;;;1.90;;
22826;SDS011;11580;52.562;13.418;2023-07-31T01:35:33;2.60;;;2.40;;
22826;SDS011;11580;52.562;13.418;2023-07-31T01:38:01;2.43;;;2.23;;
22826;SDS011;11580;52.562;13.418;2023-07-31T01:40:28;2.30;;;2.10;;
22826;SDS011;11580;52.562;13.418;2023-07-31T01:42:57;3.00;;;2.70;;
22826;SDS011;11580;52.562;13.418;2023-07-31T01:45:24;2.53;;;2.33;;
22826;SDS011;11580;52.562;13.418;2023-07-31T01:47:52;3.80;;;2.53;;
22826;SDS011;11580;52.562;13.418;2023-07-31T01:50:19;2.43;;;2.23;;
22826;SDS011;11580;52.562;13.418;2023-07-31T01:52:46;2.63;;;2.07;;
22826;SDS011;11580;52.562;13.418;2023-07-31T01:55:13;2.40;;;2.20;;
22826;SDS011;11580;52.562;13.418;2023-07-31T01:57:40;3.10;;;2.37;;
22826;SDS011;11580;52.562;13.418;2023-07-31T02:00:09;2.93;;;2.23;;
22826;SDS011;11580;52.562;13.418;2023-07-31T02:02:37;4.27;;;2.70;;
22826;SDS011;11580;52.562;13.418;2023-07-31T02:05:04;2.50;;;2.30;;
22826;SDS011;11580;52.562;13.418;2023-07-31T02:07:32;2.40;;;2.20;;
22826;SDS011;11580;52.562;13.418;2023-07-31T02:09:59;2.20;;;2.10;;
22826;SDS011;11580;52.562;13.418;2023-07-31T02:12:27;2.40;;;2.20;;
22826;SDS011;11580;52.562;13.418;2023-07-31T02:14:55;3.00;;;2.40;;
22826;SDS011;11580;52.562;13.418;2023-07-31T02:17:25;2.40;;;2.20;;
22826;SDS011;11580;52.562;13.418;2023-07-31T02:19:52;2.77;;;2.57;;
22826;SDS011;11580;52.562;13.418;2023-07-31T02:22:19;2.67;;;2.30;;
22826;SDS011;11580;52.562;13.418;2023-07-31T02:24:47;2.90;;;2.70;;
22826;SDS011;11580;52.562;13.418;2023-07-31T02:27:14;2.93;;;2.20;;
22826;SDS011;11580;52.562;13.418;2023-07-31T02:29:41;3.17;;;2.30;;
22826;SDS011;11580;52.562;13.418;2023-07-31T02:32:08;2.93;;;2.53;;
22826;SDS011;11580;52.562;13.418;2023-07-31T02:34:37;2.50;;;2.30;;
22826;SDS011;11580;52.562;13.418;2023-07-31T02:37:04;2.77;;;2.57;;
22826;SDS011;11580;52.562;13.418;2023-07-31T02:39:32;2.23;;;2.03;;
22826;SDS011;11580;52.562;13.418;2023-07-31T02:41:59;2.40;;;2.20;;
22826;SDS011;11580;52.562;13.418;2023-07-31T02:44:26;3.90;;;2.80;;
22826;SDS011;11580;52.562;13.418;2023-07-31T02:46:53;2.60;;;2.40;;
22826;SDS011;11580;52.562;13.418;2023-07-31T02:49:21;3.07;;;2.60;;
22826;SDS011;11580;52.562;13.418;2023-07-31T02:51:49;3.10;;;2.67;;
22826;SDS011;11580;52.562;13.418;2023-07-31T02:54:16;3.17;;;2.70;;
22826;SDS011;11580;52.562;13.418;2023-07-31T02:56:45;2.50;;;2.30;;
22826;SDS011;11580;52.562;13.418;2023-07-31T02:59:13;3.27;;;2.97;;
22826;SDS011;11580;52.562;13.418;2023-07-31T03:01:41;3.10;;;2.80;;
22826;SDS011;11580;52.562;13.418;2023-07-31T03:04:08;4.83;;;3.07;;
22826;SDS011;11580;52.562;13.418;2023-07-31T03:06:35;2.30;;;2.07;;
22826;SDS011;11580;52.562;13.418;2023-07-31T03:09:04;2.80;;;2.60;;
22826;SDS011;11580;52.562;13.418;2023-07-31T03:11:31;2.50;;;2.30;;
22826;SDS011;11580;52.562;13.418;2023-07-31T03:13:58;3.40;;;2.70;;
22826;SDS011;11580;52.562;13.418;2023-07-31T03:16:25;5.57;;;2.70;;
22826;SDS011;11580;52.562;13.418;2023-07-31T03:18:53;2.77;;;2.50;;
22826;SDS011;11580;52.562;13.418;2023-07-31T03:21:20;3.63;;;2.50;;
22826;SDS011;11580;52.562;13.418;2023-07-31T03:23:48;3.20;;;3.00;;
22826;SDS011;11580;52.562;13.418;2023-07-31T03:26:16;4.50;;;3.37;;
22826;SDS011;11580;52.562;13.418;2023-07-31T03:28:43;3.97;;;3.60;;
22826;SDS011;11580;52.562;13.418;2023-07-31T03:31:11;3.73;;;3.40;;
22826;SDS011;11580;52.562;13.418;2023-07-31T03:33:38;3.83;;;3.53;;
22826;SDS011;11580;52.562;13.418;2023-07-31T03:36:05;3.80;;;3.60;;
22826;SDS011;11580;52.562;13.418;2023-07-31T03:38:33;4.47;;;3.80;;
22826;SDS011;11580;52.562;13.418;2023-07-31T03:41:00;4.77;;;4.17;;
22826;SDS011;11580;52.562;13.418;2023-07-31T03:43:29;3.80;;;3.50;;
22826;SDS011;11580;52.562;13.418;2023-07-31T03:45:56;4.07;;;3.67;;
22826;SDS011;11580;52.562;13.418;2023-07-31T03:48:24;3.50;;;3.20;;
22826;SDS011;11580;52.562;13.418;2023-07-31T03:50:51;3.90;;;3.60;;
22826;SDS011;11580;52.562;13.418;2023-07-31T03:53:18;3.47;;;3.27;;
22826;SDS011;11580;52.562;13.418;2023-07-31T03:55:45;3.87;;;3.57;;
22826;SDS011;11580;52.562;13.418;2023-07-31T03:58:12;3.70;;;3.40;;
22826;SDS011;11580;52.562;13.418;2023-07-31T04:00:41;6.00;;;3.53;;
22826;SDS011;11580;52.562;13.418;2023-07-31T04:03:08;4.40;;;4.00;;
22826;SDS011;11580;52.562;13.418;2023-07-31T04:05:37;3.80;;;3.50;;
22826;SDS011;11580;52.562;13.418;2023-07-31T04:08:05;4.50;;;3.70;;
22826;SDS011;11580;52.562;13.418;2023-07-31T04:10:32;3.60;;;3.30;;
22826;SDS011;11580;52.562;13.418;2023-07-31T04:13:00;4.50;;;3.70;;
22826;SDS011;11580;52.562;13.418;2023-07-31T04:15:27;3.73;;;3.43;;
22826;SDS011;11580;52.562;13.418;2023-07-31T04:17:55;3.13;;;2.93;;
22826;SDS011;11580;52.562;13.418;2023-07-31T04:20:23;4.40;;;3.40;;
22826;SDS011;11580;52.562;13.418;2023-07-31T04:22:50;4.27;;;3.87;;
22826;SDS011;11580;52.562;13.418;2023-07-31T04:25:17;4.77;;;3.60;;
22826;SDS011;11580;52.562;13.418;2023-07-31T04:27:44;3.80;;;3.50;;
22826;SDS011;11580;52.562;13.418;2023-07-31T04:30:11;4.20;;;3.80;;
22826;SDS011;11580;52.562;13.418;2023-07-31T04:32:38;3.57;;;3.37;;
22826;SDS011;11580;52.562;13.418;2023-07-31T04:35:07;4.50;;;3.60;;
22826;SDS011;11580;52.562;13.418;2023-07-31T04:37:34;4.13;;;3.60;;
22826;SDS011;11580;52.562;13.418;2023-07-31T04:40:02;3.63;;;3.33;;
22826;SDS011;11580;52.562;13.418;2023-07-31T04:42:29;3.67;;;3.37;;
22826;SDS011;11580;52.562;13.418;2023-07-31T04:44:56;4.23;;;3.23;;
22826;SDS011;11580;52.562;13.418;2023-07-31T04:47:23;4.00;;;3.17;;
22826;SDS011;11580;52.562;13.418;2023-07-31T04:49:50;4.60;;;3.67;;
22826;SDS011;11580;52.562;13.418;2023-07-31T04:52:19;4.97;;;4.37;;
22826;SDS011;11580;52.562;13.418;2023-07-31T04:54:46;3.73;;;3.50;;
22826;SDS011;11580;52.562;13.418;2023-07-31T04:57:13;4.20;;;3.70;;
22826;SDS011;11580;52.562;13.418;2023-07-31T04:59:41;3.80;;;3.40;;
22826;SDS011;11580;52.562;13.418;2023-07-31T05:02:08;3.50;;;3.20;;
22826;SDS011;11580;52.562;13.418;2023-07-31T05:04:38;3.97;;;3.50;;
22826;SDS011;11580;52.562;13.418;2023-07-31T05:07:05;3.60;;;3.10;;
22826;SDS011;11580;52.562;13.418;2023-07-31T05:09:34;3.73;;;3.43;;
22826;SDS011;11580;52.562;13.418;2023-07-31T05:12:01;3.57;;;3.27;;
22826;SDS011;11580;52.562;13.418;2023-07-31T05:14:30;3.70;;;3.40;;
22826;SDS011;11580;52.562;13.418;2023-07-31T05:16:58;4.20;;;3.43;;
22826;SDS011;11580;52.562;13.418;2023-07-31T05:19:25;4.20;;;3.90;;
22826;SDS011;11580;52.562;13.418;2023-07-31T05:21:52;3.90;;;3.60;;
22826;SDS011;11580;52.562;13.418;2023-07-31T05:24:19;3.57;;;3.30;;
22826;SDS011;11580;52.562;13.418;2023-07-31T05:26:48;4.10;;;3.80;;
22826;SDS011;11580;52.562;13.418;2023-07-31T05:29:15;3.73;;;3.20;;
22826;SDS011;11580;52.562;13.418;2023-07-31T05:31:42;3.30;;;3.10;;
22826;SDS011;11580;52.562;13.418;2023-07-31T05:34:09;4.03;;;3.63;;
22826;SDS011;11580;52.562;13.418;2023-07-31T05:36:37;3.67;;;3.30;;
22826;SDS011;11580;52.562;13.418;2023-07-31T05:39:04;4.13;;;3.73;;
22826;SDS011;11580;52.562;13.418;2023-07-31T05:41:33;3.10;;;2.90;;
22826;SDS011;11580;52.562;13.418;2023-07-31T05:44:03;3.10;;;2.90;;
22826;SDS011;11580;52.562;13.418;2023-07-31T05:46:30;3.20;;;3.00;;
22826;SDS011;11580;52.562;13.418;2023-07-31T05:48:58;4.20;;;3.80;;
22826;SDS011;11580;52.562;13.418;2023-07-31T05:51:26;3.40;;;3.10;;
22826;SDS011;11580;52.562;13.418;2023-07-31T05:53:53;4.50;;;3.63;;
22826;SDS011;11580;52.562;13.418;2023-07-31T05:56:20;3.77;;;3.40;;
22826;SDS011;11580;52.562;13.418;2023-07-31T05:58:48;3.50;;;3.17;;
22826;SDS011;11580;52.562;13.418;2023-07-31T06:01:17;3.50;;;3.20;;
22826;SDS011;11580;52.562;13.418;2023-07-31T06:03:46;3.67;;;3.07;;
22826;SDS011;11580;52.562;13.418;2023-07-31T06:06:13;2.83;;;2.63;;
22826;SDS011;11580;52.562;13.418;2023-07-31T06:08:40;3.93;;;3.43;;
22826;SDS011;11580;52.562;13.418;2023-07-31T06:11:07;3.50;;;3.30;;
22826;SDS011;11580;52.562;13.418;2023-07-31T06:13:35;3.20;;;2.90;;
22826;SDS011;11580;52.562;13.418;2023-07-31T06:16:02;3.00;;;2.70;;
22826;SDS011;11580;52.562;13.418;2023-07-31T06:18:31;3.53;;;3.17;;
22826;SDS011;11580;52.562;13.418;2023-07-31T06:20:59;3.37;;;2.77;;
22826;SDS011;11580;52.562;13.418;2023-07-31T06:23:26;3.80;;;2.67;;
22826;SDS011;11580;52.562;13.418;2023-07-31T06:25:53;2.80;;;2.60;;
22826;SDS011;11580;52.562;13.418;2023-07-31T06:28:20;2.73;;;2.53;;
22826;SDS011;11580;52.562;13.418;2023-07-31T06:30:47;8.30;;;3.40;;
22826;SDS011;11580;52.562;13.418;2023-07-31T06:33:14;5.13;;;2.80;;
22826;SDS011;11580;52.562;13.418;2023-07-31T06:35:43;3.27;;;2.93;;
22826;SDS011;11580;52.562;13.418;2023-07-31T06:38:10;3.50;;;3.30;;
22826;SDS011;11580;52.562;13.418;2023-07-31T06:40:38;3.40;;;2.87;;
22826;SDS011;11580;52.562;13.418;2023-07-31T06:43:05;3.33;;;3.00;;
22826;SDS011;11580;52.562;13.418;2023-07-31T06:45:34;2.80;;;2.60;;
22826;SDS011;11580;52.562;13.418;2023-07-31T06:48:03;3.40;;;2.60;;
22826;SDS011;11580;52.562;13.418;2023-07-31T06:50:31;2.83;;;2.60;;
22826;SDS011;11580;52.562;13.418;2023-07-31T06:53:00;3.33;;;3.00;;
22826;SDS011;11580;52.562;13.418;2023-07-31T06:55:27;3.27;;;2.63;;
22826;SDS011;11580;52.562;13.418;2023-07-31T06:57:55;2.70;;;2.50;;
22826;SDS011;11580;52.562;13.418;2023-07-31T07:00:23;2.83;;;2.63;;
22826;SDS011;11580;52.562;13.418;2023-07-31T07:02:50;4.83;;;2.83;;
22826;SDS011;11580;52.562;13.418;2023-07-31T07:05:17;4.13;;;2.40;;
22826;SDS011;11580;52.562;13.418;2023-07-31T07:07:45;3.20;;;2.90;;
22826;SDS011;11580;52.562;13.418;2023-07-31T07:10:13;2.67;;;2.47;;
22826;SDS011;11580;52.562;13.418;2023-07-31T07:12:40;3.43;;;2.33;;
22826;SDS011;11580;52.562;13.418;2023-07-31T07:15:08;3.27;;;2.50;;
22826;SDS011;11580;52.562;13.418;2023-07-31T07:17:35;4.00;;;2.70;;
22826;SDS011;11580;52.562;13.418;2023-07-31T07:20:03;2.30;;;2.10;;
22826;SDS011;11580;52.562;13.418;2023-07-31T07:22:31;2.50;;;2.30;;
22826;SDS011;11580;52.562;13.418;2023-07-31T07:24:59;2.53;;;2.33;;
22826;SDS011;11580;52.562;13.418;2023-07-31T07:27:27;2.60;;;2.37;;
22826;SDS011;11580;52.562;13.418;2023-07-31T07:29:54;2.50;;;2.30;;
22826;SDS011;11580;52.562;13.418;2023-07-31T07:32:21;2.97;;;2.60;;
22826;SDS011;11580;52.562;13.418;2023-07-31T07:34:48;4.17;;;2.10;;
22826;SDS011;11580;52.562;13.418;2023-07-31T07:37:16;2.37;;;2.17;;
22826;SDS011;11580;52.562;13.418;2023-07-31T07:39:43;2.80;;;2.60;;
22826;SDS011;11580;52.562;13.418;2023-07-31T07:42:10;2.40;;;2.20;;
22826;SDS011;11580;52.562;13.418;2023-07-31T07:44:39;2.80;;;2.60;;
22826;SDS011;11580;52.562;13.418;2023-07-31T07:47:06;2.60;;;2.40;;
22826;SDS011;11580;52.562;13.418;2023-07-31T07:49:33;2.23;;;2.13;;
22826;SDS011;11580;52.562;13.418;2023-07-31T07:52:01;2.77;;;2.33;;
22826;SDS011;11580;52.562;13.418;2023-07-31T07:54:29;2.47;;;2.20;;
22826;SDS011;11580;52.562;13.418;2023-07-31T07:56:57;2.60;;;2.40;;
22826;SDS011;11580;52.562;13.418;2023-07-31T07:59:24;2.80;;;2.27;;
22826;SDS011;11580;52.562;13.418;2023-07-31T08:01:53;2.17;;;1.97;;
22826;SDS011;11580;52.562;13.418;2023-07-31T08:04:20;2.47;;;2.27;;
22826;SDS011;11580;52.562;13.418;2023-07-31T08:06:47;2.00;;;1.90;;
22826;SDS011;11580;52.562;13.418;2023-07-31T08:09:14;2.77;;;2.07;;
22826;SDS011;11580;52.562;13.418;2023-07-31T08:11:41;2.70;;;2.50;;
22826;SDS011;11580;52.562;13.418;2023-07-31T08:14:08;2.37;;;2.17;;
22826;SDS011;11580;52.562;13.418;2023-07-31T08:16:36;2.30;;;2.10;;
22826;SDS011;11580;52.562;13.418;2023-07-31T08:19:04;2.30;;;2.10;;
22826;SDS011;11580;52.562;13.418;2023-07-31T08:21:31;2.17;;;1.90;;
22826;SDS011;11580;52.562;13.418;2023-07-31T08:23:58;2.10;;;1.90;;
22826;SDS011;11580;52.562;13.418;2023-07-31T08:26:26;2.10;;;1.90;;
22826;SDS011;11580;52.562;13.418;2023-07-31T08:28:53;2.50;;;2.00;;
22826;SDS011;11580;52.562;13.418;2023-07-31T08:31:20;2.80;;;1.97;;
22826;SDS011;11580;52.562;13.418;2023-07-31T08:33:47;2.30;;;2.10;;
22826;SDS011;11580;52.562;13.418;2023-07-31T08:36:15;2.20;;;1.97;;
22826;SDS011;11580;52.562;13.418;2023-07-31T08:38:43;2.17;;;2.07;;
22826;SDS011;11580;52.562;13.418;2023-07-31T08:41:11;2.37;;;2.17;;
22826;SDS011;11580;52.562;13.418;2023-07-31T08:43:39;2.10;;;2.00;;
22826;SDS011;11580;52.562;13.418;2023-07-31T08:46:07;1.70;;;1.60;;
22826;SDS011;11580;52.562;13.418;2023-07-31T08:48:34;2.17;;;1.97;;
22826;SDS011;11580;52.562;13.418;2023-07-31T08:51:04;1.80;;;1.70;;
22826;SDS011;11580;52.562;13.418;2023-07-31T08:53:32;2.03;;;1.83;;
22826;SDS011;11580;52.562;13.418;2023-07-31T08:56:00;2.07;;;1.83;;
22826;SDS011;11580;52.562;13.418;2023-07-31T08:58:27;1.60;;;1.50;;
22826;SDS011;11580;52.562;13.418;2023-07-31T09:00:58;1.80;;;1.70;;
22826;SDS011;11580;52.562;13.418;2023-07-31T09:03:32;1.53;;;1.40;;
22826;SDS011;11580;52.562;13.418;2023-07-31T09:06:02;1.77;;;1.60;;
22826;SDS011;11580;52.562;13.418;2023-07-31T09:08:32;3.23;;;1.77;;
22826;SDS011;11580;52.562;13.418;2023-07-31T09:11:00;2.00;;;1.90;;
22826;SDS011;11580;52.562;13.418;2023-07-31T09:13:30;1.77;;;1.67;;
22826;SDS011;11580;52.562;13.418;2023-07-31T09:15:58;2.10;;;2.00;;
22826;SDS011;11580;52.562;13.418;2023-07-31T09:18:25;1.87;;;1.77;;
22826;SDS011;11580;52.562;13.418;2023-07-31T09:21:02;3.80;;;2.67;;
22826;SDS011;11580;52.562;13.418;2023-07-31T09:23:41;2.37;;;2.17;;
22826;SDS011;11580;52.562;13.418;2023-07-31T09:26:10;2.10;;;2.00;;
22826;SDS011;11580;52.562;13.418;2023-07-31T09:28:54;2.20;;;2.00;;
22826;SDS011;11580;52.562;13.418;2023-07-31T09:31:31;1.87;;;1.77;;
22826;SDS011;11580;52.562;13.418;2023-07-31T09:34:00;1.77;;;1.67;;
22826;SDS011;11580;52.562;13.418;2023-07-31T09:36:28;2.43;;;2.20;;
22826;SDS011;11580;52.562;13.418;2023-07-31T09:38:59;1.73;;;1.63;;
22826;SDS011;11580;52.562;13.418;2023-07-31T09:41:29;2.07;;;1.87;;
22826;SDS011;11580;52.562;13.418;2023-07-31T09:43:56;1.30;;;1.20;;
22826;SDS011;11580;52.562;13.418;2023-07-31T09:46:26;2.10;;;1.90;;
22826;SDS011;11580;52.562;13.418;2023-07-31T09:49:02;1.83;;;1.73;;
22826;SDS011;11580;52.562;13.418;2023-07-31T09:51:32;1.70;;;1.60;;
22826;SDS011;11580;52.562;13.418;2023-07-31T09:54:04;1.30;;;1.20;;
22826;SDS011;11580;52.562;13.418;2023-07-31T09:56:38;1.40;;;1.30;;
22826;SDS011;11580;52.562;13.418;2023-07-31T09:59:13;1.43;;;1.33;;
22826;SDS011;11580;52.562;13.418;2023-07-31T10:01:42;1.43;;;1.33;;
22826;SDS011;11580;52.562;13.418;2023-07-31T10:04:12;1.93;;;1.83;;
22826;SDS011;11580;52.562;13.418;2023-07-31T10:06:40;2.83;;;1.83;;
22826;SDS011;11580;52.562;13.418;2023-07-31T10:09:11;1.63;;;1.53;;
22826;SDS011;11580;52.562;13.418;2023-07-31T10:11:46;1.77;;;1.50;;
22826;SDS011;11580;52.562;13.418;2023-07-31T10:14:20;1.50;;;1.37;;
22826;SDS011;11580;52.562;13.418;2023-07-31T10:16:50;2.40;;;2.20;;
22826;SDS011;11580;52.562;13.418;2023-07-31T10:19:18;1.87;;;1.77;;
22826;SDS011;11580;52.562;13.418;2023-07-31T10:21:48;1.93;;;1.83;;
22826;SDS011;11580;52.562;13.418;2023-07-31T10:24:17;2.23;;;2.03;;
22826;SDS011;11580;52.562;13.418;2023-07-31T10:26:45;2.70;;;2.40;;
22826;SDS011;11580;52.562;13.418;2023-07-31T10:29:15;2.20;;;2.00;;
22826;SDS011;11580;52.562;13.418;2023-07-31T10:31:45;2.40;;;2.20;;
22826;SDS011;11580;52.562;13.418;2023-07-31T10:34:14;2.30;;;2.20;;
22826;SDS011;11580;52.562;13.418;2023-07-31T10:36:41;2.60;;;2.40;;
22826;SDS011;11580;52.562;13.418;2023-07-31T10:42:09;3.30;;;2.97;;
22826;SDS011;11580;52.562;13.418;2023-07-31T10:44:37;3.17;;;2.43;;
22826;SDS011;11580;52.562;13.418;2023-07-31T10:47:10;2.70;;;2.50;;
22826;SDS011;11580;52.562;13.418;2023-07-31T10:49:39;3.17;;;2.90;;
22826;SDS011;11580;52.562;13.418;2023-07-31T10:52:08;3.27;;;3.00;;
22826;SDS011;11580;52.562;13.418;2023-07-31T10:54:41;3.77;;;3.07;;
22826;SDS011;11580;52.562;13.418;2023-07-31T10:57:18;3.67;;;2.97;;
22826;SDS011;11580;52.562;13.418;2023-07-31T10:59:47;4.43;;;3.33;;
22826;SDS011;11580;52.562;13.418;2023-07-31T11:02:25;3.00;;;2.80;;
22826;SDS011;11580;52.562;13.418;2023-07-31T11:05:07;3.90;;;3.50;;
22826;SDS011;11580;52.562;13.418;2023-07-31T11:07:48;3.17;;;2.73;;
22826;SDS011;11580;52.562;13.418;2023-07-31T11:10:17;4.00;;;3.40;;
22826;SDS011;11580;52.562;13.418;2023-07-31T11:12:46;3.27;;;3.03;;
22826;SDS011;11580;52.562;13.418;2023-07-31T11:15:13;4.00;;;3.60;;
22826;SDS011;11580;52.562;13.418;2023-07-31T11:17:40;3.27;;;3.07;;
22826;SDS011;11580;52.562;13.418;2023-07-31T11:20:08;2.87;;;2.67;;
22826;SDS011;11580;52.562;13.418;2023-07-31T11:22:36;3.23;;;3.03;;
22826;SDS011;11580;52.562;13.418;2023-07-31T11:25:03;3.33;;;3.00;;
22826;SDS011;11580;52.562;13.418;2023-07-31T11:27:38;3.23;;;3.03;;
22826;SDS011;11580;52.562;13.418;2023-07-31T11:30:07;3.00;;;2.80;;
22826;SDS011;11580;52.562;13.418;2023-07-31T11:32:36;3.30;;;3.00;;
22826;SDS011;11580;52.562;13.418;2023-07-31T11:35:03;3.60;;;3.30;;
22826;SDS011;11580;52.562;13.418;2023-07-31T11:37:39;3.70;;;3.40;;
22826;SDS011;11580;52.562;13.418;2023-07-31T11:40:07;3.40;;;3.20;;
22826;SDS011;11580;52.562;13.418;2023-07-31T11:42:37;3.13;;;2.93;;
22826;SDS011;11580;52.562;13.418;2023-07-31T11:45:05;3.20;;;3.00;;
22826;SDS011;11580;52.562;13.418;2023-07-31T11:47:35;3.10;;;2.90;;
22826;SDS011;11580;52.562;13.418;2023-07-31T11:50:04;3.57;;;3.27;;
22826;SDS011;11580;52.562;13.418;2023-07-31T11:52:35;3.83;;;3.53;;
22826;SDS011;11580;52.562;13.418;2023-07-31T11:55:06;3.20;;;3.00;;
22826;SDS011;11580;52.562;13.418;2023-07-31T11:57:38;3.43;;;3.23;;
22826;SDS011;11580;52.562;13.418;2023-07-31T12:00:10;3.13;;;2.83;;
22826;SDS011;11580;52.562;13.418;2023-07-31T12:02:39;3.30;;;3.10;;
22826;SDS011;11580;52.562;13.418;2023-07-31T12:05:10;3.43;;;3.20;;
22826;SDS011;11580;52.562;13.418;2023-07-31T12:07:45;4.23;;;3.83;;
22826;SDS011;11580;52.562;13.418;2023-07-31T12:10:24;3.90;;;3.47;;
22826;SDS011;11580;52.562;13.418;2023-07-31T12:12:58;3.67;;;3.33;;
22826;SDS011;11580;52.562;13.418;2023-07-31T12:15:34;3.60;;;3.30;;
22826;SDS011;11580;52.562;13.418;2023-07-31T12:18:05;3.37;;;3.17;;
22826;SDS011;11580;52.562;13.418;2023-07-31T12:20:34;3.23;;;2.93;;
22826;SDS011;11580;52.562;13.418;2023-07-31T12:23:02;3.70;;;3.30;;
22826;SDS011;11580;52.562;13.418;2023-07-31T12:25:30;3.27;;;2.97;;
22826;SDS011;11580;52.562;13.418;2023-07-31T12:28:05;2.90;;;2.70;;
22826;SDS011;11580;52.562;13.418;2023-07-31T12:30:36;3.50;;;3.30;;
22826;SDS011;11580;52.562;13.418;2023-07-31T12:33:06;3.40;;;3.10;;
22826;SDS011;11580;52.562;13.418;2023-07-31T12:35:41;3.40;;;3.10;;
22826;SDS011;11580;52.562;13.418;2023-07-31T12:38:13;3.40;;;3.20;;
22826;SDS011;11580;52.562;13.418;2023-07-31T12:40:41;3.13;;;2.93;;
22826;SDS011;11580;52.562;13.418;2023-07-31T12:43:10;3.00;;;2.80;;
22826;SDS011;11580;52.562;13.418;2023-07-31T12:45:37;3.20;;;2.90;;
22826;SDS011;11580;52.562;13.418;2023-07-31T12:48:04;3.73;;;3.50;;
22826;SDS011;11580;52.562;13.418;2023-07-31T12:50:31;2.80;;;2.60;;
22826;SDS011;11580;52.562;13.418;2023-07-31T12:53:01;3.60;;;2.80;;
22826;SDS011;11580;52.562;13.418;2023-07-31T12:55:29;2.97;;;2.70;;
22826;SDS011;11580;52.562;13.418;2023-07-31T12:57:56;3.50;;;2.93;;
22826;SDS011;11580;52.562;13.418;2023-07-31T13:00:25;4.17;;;2.93;;
22826;SDS011;11580;52.562;13.418;2023-07-31T13:02:52;2.90;;;2.70;;
22826;SDS011;11580;52.562;13.418;2023-07-31T13:05:20;2.83;;;2.63;;
22826;SDS011;11580;52.562;13.418;2023-07-31T13:07:47;3.03;;;2.83;;
22826;SDS011;11580;52.562;13.418;2023-07-31T13:10:14;2.60;;;2.40;;
22826;SDS011;11580;52.562;13.418;2023-07-31T13:12:42;2.30;;;2.10;;
22826;SDS011;11580;52.562;13.418;2023-07-31T13:15:09;2.53;;;2.33;;
22826;SDS011;11580;52.562;13.418;2023-07-31T13:17:38;1.97;;;1.83;;
22826;SDS011;11580;52.562;13.418;2023-07-31T13:20:06;2.37;;;1.80;;
22826;SDS011;11580;52.562;13.418;2023-07-31T13:22:34;2.20;;;2.00;;
22826;SDS011;11580;52.562;13.418;2023-07-31T13:25:01;2.40;;;2.20;;
22826;SDS011;11580;52.562;13.418;2023-07-31T13:27:29;1.97;;;1.87;;
22826;SDS011;11580;52.562;13.418;2023-07-31T13:29:56;2.50;;;1.70;;
22826;SDS011;11580;52.562;13.418;2023-07-31T13:32:23;2.60;;;2.40;;
22826;SDS011;11580;52.562;13.418;2023-07-31T13:34:52;2.70;;;2.43;;
22826;SDS011;11580;52.562;13.418;2023-07-31T13:37:19;2.60;;;2.40;;
22826;SDS011;11580;52.562;13.418;2023-07-31T13:39:47;2.40;;;2.07;;
22826;SDS011;11580;52.562;13.418;2023-07-31T13:42:14;2.53;;;2.33;;
22826;SDS011;11580;52.562;13.418;2023-07-31T13:44:41;2.90;;;2.40;;
22826;SDS011;11580;52.562;13.418;2023-07-31T13:47:09;3.27;;;2.77;;
22826;SDS011;11580;52.562;13.418;2023-07-31T13:49:36;2.90;;;2.70;;
22826;SDS011;11580;52.562;13.418;2023-07-31T13:52:05;3.33;;;2.67;;
22826;SDS011;11580;52.562;13.418;2023-07-31T13:54:33;3.60;;;3.30;;
22826;SDS011;11580;52.562;13.418;2023-07-31T13:57:00;2.60;;;2.50;;
22826;SDS011;11580;52.562;13.418;2023-07-31T13:59:28;2.93;;;2.70;;
22826;SDS011;11580;52.562;13.418;2023-07-31T14:01:55;2.97;;;2.70;;
22826;SDS011;11580;52.562;13.418;2023-07-31T14:04:22;2.77;;;2.57;;
22826;SDS011;11580;52.562;13.418;2023-07-31T14:06:49;3.30;;;3.10;;
22826;SDS011;11580;52.562;13.418;2023-07-31T14:09:19;3.47;;;3.17;;
22826;SDS011;11580;52.562;13.418;2023-07-31T14:11:46;3.17;;;2.87;;
22826;SDS011;11580;52.562;13.418;2023-07-31T14:14:13;2.83;;;2.53;;
22826;SDS011;11580;52.562;13.418;2023-07-31T14:16:40;3.27;;;3.07;;
22826;SDS011;11580;52.562;13.418;2023-07-31T14:19:08;3.40;;;3.10;;
22826;SDS011;11580;52.562;13.418;2023-07-31T14:21:35;3.00;;;2.77;;
22826;SDS011;11580;52.562;13.418;2023-07-31T14:24:02;3.20;;;3.00;;
22826;SDS011;11580;52.562;13.418;2023-07-31T14:26:32;3.73;;;3.37;;
22826;SDS011;11580;52.562;13.418;2023-07-31T14:28:59;3.67;;;3.40;;
22826;SDS011;11580;52.562;13.418;2023-07-31T14:31:26;2.97;;;2.77;;
22826;SDS011;11580;52.562;13.418;2023-07-31T14:33:53;3.60;;;3.40;;
22826;SDS011;11580;52.562;13.418;2023-07-31T14:36:20;3.10;;;2.90;;
22826;SDS011;11580;52.562;13.418;2023-07-31T14:38:47;3.37;;;3.07;;
22826;SDS011;11580;52.562;13.418;2023-07-31T14:41:14;3.20;;;2.90;;
22826;SDS011;11580;52.562;13.418;2023-07-31T14:43:43;3.40;;;3.10;;